createdAt,value
2023-02-14T00:02:07.400Z,37.87
2023-02-14T00:04:38.211Z,37.87
2023-02-14T00:07:06.309Z,33.70
2023-02-14T00:09:33.763Z,35.77
2023-02-14T00:12:01.218Z,37.63
2023-02-14T00:14:47.441Z,36.33
2023-02-14T00:17:14.922Z,35.63
2023-02-14T00:19:42.396Z,39.17
2023-02-14T00:22:09.879Z,39.43
2023-02-14T00:24:37.344Z,36.67
2023-02-14T00:27:04.977Z,37.77
2023-02-14T00:29:34.230Z,41.00
2023-02-14T00:32:02.270Z,36.70
2023-02-14T00:34:30.004Z,40.40
2023-02-14T00:36:57.499Z,41.63
2023-02-14T00:39:24.980Z,42.33
2023-02-14T00:41:52.467Z,44.13
2023-02-14T00:44:19.957Z,42.73
2023-02-14T00:46:48.828Z,42.47
2023-02-14T00:49:16.451Z,45.63
2023-02-14T00:51:43.954Z,43.40
2023-02-14T00:54:11.504Z,40.57
2023-02-14T00:56:39.007Z,41.87
2023-02-14T00:59:06.491Z,45.20
2023-02-14T01:01:34.005Z,45.03
2023-02-14T01:04:02.898Z,42.33
2023-02-14T01:06:30.386Z,42.90
2023-02-14T01:08:58.135Z,41.27
2023-02-14T01:11:26.263Z,42.57
2023-02-14T01:13:58.556Z,45.10
2023-02-14T01:16:27.938Z,40.60
2023-02-14T01:18:56.061Z,39.10
2023-02-14T01:21:27.040Z,37.73
2023-02-14T01:23:56.359Z,44.43
2023-02-14T01:26:25.521Z,44.03
2023-02-14T01:28:54.531Z,42.50
2023-02-14T01:31:24.705Z,43.83
2023-02-14T01:33:52.606Z,39.63
2023-02-14T01:36:22.701Z,41.37
2023-02-14T01:38:54.864Z,42.23
2023-02-14T01:41:23.415Z,41.97
2023-02-14T01:43:52.510Z,44.07
2023-02-14T01:46:20.493Z,40.30
2023-02-14T01:48:48.727Z,41.27
2023-02-14T01:51:19.082Z,41.53
2023-02-14T01:53:46.769Z,39.60
2023-02-14T01:56:20.638Z,42.60
2023-02-14T01:58:53.689Z,38.93
2023-02-14T02:01:22.017Z,40.00
2023-02-14T02:03:52.341Z,38.40
2023-02-14T02:06:24.960Z,39.37
2023-02-14T02:09:03.380Z,39.27
2023-02-14T02:11:32.190Z,41.30
2023-02-14T02:13:59.663Z,37.37
2023-02-14T02:16:49.025Z,39.57
2023-02-14T02:19:57.768Z,39.23
2023-02-14T02:22:49.198Z,40.70
2023-02-14T02:25:37.939Z,42.07
2023-02-14T02:28:30.515Z,38.90
2023-02-14T02:31:22.034Z,39.57
2023-02-14T02:34:13.539Z,37.80
2023-02-14T02:37:00.085Z,43.10
2023-02-14T02:39:40.733Z,45.00
2023-02-14T02:42:20.819Z,40.03
2023-02-14T02:44:54.938Z,43.50
2023-02-14T02:47:29.493Z,42.23
2023-02-14T02:50:23.907Z,41.57
2023-02-14T02:53:07.036Z,44.13
2023-02-14T02:56:02.784Z,46.43
2023-02-14T02:58:36.103Z,45.53
2023-02-14T03:01:10.160Z,42.90
2023-02-14T03:03:58.535Z,42.63
2023-02-14T03:06:25.994Z,40.80
2023-02-14T03:08:54.810Z,41.60
2023-02-14T03:11:22.604Z,45.70
2023-02-14T03:14:14.135Z,41.77
2023-02-14T03:17:00.123Z,41.13
2023-02-14T03:19:55.326Z,42.43
2023-02-14T03:22:33.639Z,41.80
2023-02-14T03:25:10.779Z,46.23
2023-02-14T03:27:45.872Z,42.20
2023-02-14T03:30:24.527Z,42.93
2023-02-14T03:32:59.642Z,41.33
2023-02-14T03:35:33.408Z,41.20
2023-02-14T03:38:08.606Z,41.47
2023-02-14T03:40:41.857Z,39.53
2023-02-14T03:43:13.210Z,42.00
2023-02-14T03:45:45.296Z,44.43
2023-02-14T03:48:15.243Z,42.40
2023-02-14T03:50:45.437Z,39.77
2023-02-14T03:53:16.010Z,39.33
2023-02-14T03:55:52.286Z,45.20
2023-02-14T03:58:25.659Z,38.20
2023-02-14T04:01:00.044Z,34.90
2023-02-14T04:03:30.716Z,45.93
2023-02-14T04:05:58.711Z,43.17
2023-02-14T04:08:28.451Z,42.57
2023-02-14T04:11:00.551Z,40.73
2023-02-14T04:13:28.972Z,39.30
2023-02-14T04:15:56.612Z,38.77
2023-02-14T04:18:41.649Z,39.70
2023-02-14T04:21:09.141Z,40.67
2023-02-14T04:23:36.617Z,37.07
2023-02-14T04:26:05.910Z,40.87
2023-02-14T04:28:33.835Z,44.57
2023-02-14T04:31:03.561Z,42.77
2023-02-14T04:33:31.655Z,42.77
2023-02-14T04:35:59.234Z,42.70
2023-02-14T04:38:26.922Z,45.20
2023-02-14T04:40:54.391Z,45.07
2023-02-14T04:43:23.196Z,42.17
2023-02-14T04:45:50.656Z,43.97
2023-02-14T04:48:18.108Z,45.03
2023-02-14T04:50:45.578Z,47.83
2023-02-14T04:53:13.032Z,48.73
2023-02-14T04:55:40.498Z,46.17
2023-02-14T04:58:07.952Z,47.70
2023-02-14T05:00:36.823Z,45.20
2023-02-14T05:03:04.485Z,41.57
2023-02-14T05:05:31.966Z,47.83
2023-02-14T05:07:59.435Z,46.60
2023-02-14T05:10:27.074Z,45.60
2023-02-14T05:12:54.538Z,54.73
2023-02-14T05:15:21.983Z,49.50
2023-02-14T05:17:50.815Z,51.40
2023-02-14T05:20:18.624Z,49.87
2023-02-14T05:22:46.109Z,47.97
2023-02-14T05:25:13.559Z,46.03
2023-02-14T05:27:41.066Z,44.97
2023-02-14T05:30:09.916Z,49.17
2023-02-14T05:32:37.476Z,49.53
2023-02-14T05:35:07.313Z,45.60
2023-02-14T05:37:34.797Z,45.00
2023-02-14T05:40:02.258Z,41.17
2023-02-14T05:42:29.733Z,45.90
2023-02-14T05:44:57.192Z,48.07
2023-02-14T05:47:24.665Z,44.57
2023-02-14T05:49:52.130Z,45.63
2023-02-14T05:52:20.909Z,44.63
2023-02-14T05:54:48.364Z,40.77
2023-02-14T05:57:15.964Z,49.67
2023-02-14T05:59:43.440Z,42.87
2023-02-14T06:02:11.051Z,53.93
2023-02-14T06:04:38.580Z,55.70
2023-02-14T06:07:06.163Z,47.00
2023-02-14T06:09:35.370Z,52.23
2023-02-14T06:12:02.871Z,45.90
2023-02-14T06:14:30.341Z,61.13
2023-02-14T06:16:57.828Z,46.50
2023-02-14T06:19:25.319Z,43.47
2023-02-14T06:21:52.780Z,56.87
2023-02-14T06:24:20.289Z,63.57
2023-02-14T06:26:49.082Z,47.63
2023-02-14T06:29:18.374Z,47.77
2023-02-14T06:31:45.954Z,51.43
2023-02-14T06:34:15.897Z,83.57
2023-02-14T06:36:43.611Z,71.10
2023-02-14T06:39:11.163Z,45.07
2023-02-14T06:41:38.655Z,45.90
2023-02-14T06:44:07.545Z,43.97
2023-02-14T06:46:35.091Z,46.97
2023-02-14T06:49:02.558Z,43.83
2023-02-14T06:51:30.023Z,42.27
2023-02-14T06:53:57.497Z,43.97
2023-02-14T06:56:24.972Z,49.67
2023-02-14T06:58:52.413Z,48.27
2023-02-14T07:01:21.240Z,62.77
2023-02-14T07:03:48.721Z,48.87
2023-02-14T07:06:16.182Z,46.07
2023-02-14T07:08:43.624Z,54.70
2023-02-14T07:11:11.178Z,65.67
2023-02-14T07:13:38.670Z,59.83
2023-02-14T07:16:06.703Z,68.17
2023-02-14T07:18:35.510Z,84.40
2023-02-14T07:21:03.187Z,105.03
2023-02-14T07:23:30.815Z,99.03
2023-02-14T07:25:58.297Z,94.03
2023-02-14T07:28:25.799Z,103.33
2023-02-14T07:30:53.513Z,94.63
2023-02-14T07:33:21.025Z,157.27
2023-02-14T07:35:49.834Z,106.90
2023-02-14T07:38:17.340Z,151.23
2023-02-14T07:40:44.837Z,120.33
2023-02-14T07:43:12.328Z,104.93
2023-02-14T07:45:39.801Z,114.47
2023-02-14T07:48:07.438Z,116.63
2023-02-14T07:50:34.885Z,90.30
2023-02-14T07:53:03.793Z,171.33
2023-02-14T07:55:31.248Z,101.97
2023-02-14T07:57:58.731Z,140.83
2023-02-14T08:00:26.430Z,134.57
2023-02-14T08:02:55.930Z,106.27
2023-02-14T08:05:23.512Z,84.73
2023-02-14T08:07:51.362Z,106.77
2023-02-14T08:10:20.389Z,115.87
2023-02-14T08:13:00.224Z,93.17
2023-02-14T08:15:46.230Z,155.33
2023-02-14T08:18:13.904Z,171.37
2023-02-14T08:20:41.409Z,92.53
2023-02-14T08:23:08.893Z,79.67
2023-02-14T08:25:37.871Z,77.30
2023-02-14T08:28:05.919Z,89.27
2023-02-14T08:30:33.898Z,67.23
2023-02-14T08:33:01.388Z,80.17
2023-02-14T08:35:28.863Z,83.53
2023-02-14T08:37:56.347Z,65.33
2023-02-14T08:40:23.957Z,96.33
2023-02-14T08:42:52.781Z,68.83
2023-02-14T08:45:20.574Z,108.37
2023-02-14T08:47:48.554Z,95.70
2023-02-14T08:50:18.289Z,70.67
2023-02-14T08:52:46.072Z,63.70
2023-02-14T08:55:14.989Z,93.83
2023-02-14T08:57:42.576Z,122.90
2023-02-14T09:00:12.523Z,76.10
2023-02-14T09:02:39.997Z,75.17
2023-02-14T09:05:09.327Z,78.00
2023-02-14T09:07:36.810Z,59.97
2023-02-14T09:10:04.460Z,50.77
2023-02-14T09:12:31.950Z,55.97
2023-02-14T09:14:59.430Z,46.63
2023-02-14T09:17:28.388Z,71.17
2023-02-14T09:19:55.882Z,54.77
2023-02-14T09:22:23.451Z,60.13
2023-02-14T09:24:50.930Z,54.63
2023-02-14T09:27:18.407Z,79.37
2023-02-14T09:29:45.915Z,79.30
2023-02-14T09:32:13.519Z,85.83
2023-02-14T09:35:00.120Z,83.87
2023-02-14T09:37:45.413Z,53.77
2023-02-14T09:40:14.609Z,36.80
2023-02-14T09:42:52.388Z,59.17
2023-02-14T09:45:22.906Z,47.30
2023-02-14T09:47:53.972Z,53.37
2023-02-14T09:50:26.457Z,53.13
2023-02-14T09:52:57.924Z,45.03
2023-02-14T09:55:31.617Z,51.20
2023-02-14T09:58:09.928Z,36.13
2023-02-14T10:00:44.331Z,58.17
2023-02-14T10:03:39.924Z,34.83
2023-02-14T10:06:20.265Z,33.73
2023-02-14T10:08:56.633Z,67.27
2023-02-14T10:11:25.731Z,36.70
2023-02-14T10:13:58.789Z,60.73
2023-02-14T10:16:31.101Z,30.17
2023-02-14T10:19:02.369Z,36.60
2023-02-14T10:21:36.622Z,22.87
2023-02-14T10:24:12.535Z,29.30
2023-02-14T10:26:41.603Z,47.70
2023-02-14T10:29:14.790Z,68.47
2023-02-14T10:31:50.211Z,53.37
2023-02-14T10:34:25.684Z,38.60
2023-02-14T10:37:13.056Z,42.00
2023-02-14T10:39:57.370Z,27.27
2023-02-14T10:42:34.846Z,30.43
2023-02-14T10:45:13.825Z,55.27
2023-02-14T10:47:49.938Z,37.57
2023-02-14T10:50:22.845Z,28.17
2023-02-14T10:53:04.675Z,23.63
2023-02-14T10:55:40.713Z,26.97
2023-02-14T10:58:13.409Z,53.23
2023-02-14T11:00:50.674Z,90.53
2023-02-14T11:03:18.768Z,24.40
2023-02-14T11:05:48.899Z,17.73
2023-02-14T11:08:24.941Z,23.37
2023-02-14T11:10:53.039Z,20.13
2023-02-14T11:13:32.567Z,18.93
2023-02-14T11:16:03.212Z,18.33
2023-02-14T11:18:33.111Z,20.77
2023-02-14T11:21:03.140Z,16.60
2023-02-14T11:23:36.694Z,19.77
2023-02-14T11:26:06.212Z,19.57
2023-02-14T11:28:35.608Z,20.93
2023-02-14T11:31:04.354Z,20.23
2023-02-14T11:33:38.404Z,19.63
2023-02-14T11:36:11.936Z,18.00
2023-02-14T11:38:42.115Z,20.03
2023-02-14T11:41:12.962Z,17.03
2023-02-14T11:43:41.581Z,19.23
2023-02-14T11:46:15.845Z,18.30
2023-02-14T11:48:59.436Z,17.77
2023-02-14T11:51:30.637Z,18.60
2023-02-14T11:54:04.639Z,19.97
2023-02-14T11:56:47.846Z,21.53
2023-02-14T11:59:26.982Z,20.57
2023-02-14T12:01:55.548Z,21.60
2023-02-14T12:04:29.104Z,21.90
2023-02-14T12:07:15.037Z,22.53
2023-02-14T12:09:44.266Z,25.10
2023-02-14T12:12:22.124Z,26.00
2023-02-14T12:14:49.805Z,25.33
2023-02-14T12:17:26.802Z,24.07
2023-02-14T12:20:01.531Z,20.97
2023-02-14T12:22:33.864Z,18.07
2023-02-14T12:25:13.730Z,19.20
2023-02-14T12:27:49.436Z,14.80
2023-02-14T12:30:20.236Z,20.37
2023-02-14T12:32:50.270Z,19.50
2023-02-14T12:35:20.372Z,17.53
2023-02-14T12:38:04.727Z,18.37
2023-02-14T12:40:44.119Z,19.00
2023-02-14T12:43:35.142Z,19.57
2023-02-14T12:46:32.486Z,16.97
2023-02-14T12:49:31.287Z,24.13
2023-02-14T12:52:10.714Z,24.83
2023-02-14T12:54:50.333Z,25.67
2023-02-14T12:57:31.913Z,21.73
2023-02-14T13:00:15.935Z,24.33
2023-02-14T13:03:34.675Z,28.30
2023-02-14T13:06:08.229Z,27.07
2023-02-14T13:08:51.184Z,25.00
2023-02-14T13:11:37.998Z,29.47
2023-02-14T13:14:21.124Z,26.57
2023-02-14T13:16:55.805Z,25.00
2023-02-14T13:19:36.216Z,27.37
2023-02-14T13:22:05.968Z,22.77
2023-02-14T13:24:39.176Z,24.73
2023-02-14T13:27:10.681Z,23.13
2023-02-14T13:29:45.845Z,24.50
2023-02-14T13:32:17.639Z,29.60
2023-02-14T13:34:47.690Z,26.00
2023-02-14T13:37:19.196Z,23.53
2023-02-14T13:39:49.771Z,19.50
2023-02-14T13:42:50.642Z,17.37
2023-02-14T13:45:53.831Z,17.93
2023-02-14T13:48:23.593Z,18.60
2023-02-14T13:50:54.676Z,16.83
2023-02-14T13:53:37.643Z,16.10
2023-02-14T13:56:07.961Z,18.90
2023-02-14T13:58:36.320Z,20.30
2023-02-14T14:01:32.162Z,19.60
2023-02-14T14:04:00.890Z,17.30
2023-02-14T14:06:28.684Z,17.23
2023-02-14T14:08:58.430Z,15.00
2023-02-14T14:12:00.612Z,18.90
2023-02-14T14:14:39.829Z,20.00
2023-02-14T14:17:27.481Z,16.67
2023-02-14T14:19:55.416Z,17.90
2023-02-14T14:22:23.195Z,16.63
2023-02-14T14:24:57.098Z,17.73
2023-02-14T14:27:26.779Z,15.37
2023-02-14T14:29:56.283Z,15.57
2023-02-14T14:32:29.813Z,14.67
2023-02-14T14:34:59.368Z,14.27
2023-02-14T14:37:29.414Z,15.63
2023-02-14T14:39:59.152Z,16.63
2023-02-14T14:42:29.778Z,17.77
2023-02-14T14:45:02.055Z,15.67
2023-02-14T14:47:38.710Z,19.17
2023-02-14T14:50:10.201Z,16.33
2023-02-14T14:52:42.333Z,15.67
2023-02-14T14:55:19.190Z,18.10
2023-02-14T14:57:50.952Z,18.67
2023-02-14T15:00:22.625Z,17.70
2023-02-14T15:03:00.941Z,15.47
2023-02-14T15:05:30.817Z,16.40
2023-02-14T15:07:58.732Z,14.50
2023-02-14T15:10:28.730Z,15.87
2023-02-14T15:13:17.040Z,16.77
2023-02-14T15:15:50.746Z,19.13
2023-02-14T15:18:21.560Z,19.57
2023-02-14T15:20:50.498Z,19.17
2023-02-14T15:23:21.051Z,18.07
2023-02-14T15:25:49.923Z,20.30
2023-02-14T15:28:28.217Z,22.77
2023-02-14T15:31:01.917Z,21.00
2023-02-14T15:33:32.408Z,22.60
2023-02-14T15:36:04.212Z,23.10
2023-02-14T15:38:33.762Z,20.73
2023-02-14T15:41:02.491Z,24.70
2023-02-14T15:43:32.402Z,22.20
2023-02-14T15:46:15.292Z,24.07
2023-02-14T15:48:46.443Z,21.53
2023-02-14T15:51:20.066Z,23.33
2023-02-14T15:53:52.839Z,23.47
2023-02-14T15:56:24.794Z,21.20
2023-02-14T15:58:59.656Z,22.67
2023-02-14T16:01:27.970Z,23.77
2023-02-14T16:03:59.649Z,24.90
2023-02-14T16:06:33.951Z,21.47
2023-02-14T16:09:01.778Z,21.50
2023-02-14T16:11:31.441Z,25.10
2023-02-14T16:13:59.346Z,23.27
2023-02-14T16:16:26.936Z,28.90
2023-02-14T16:18:56.456Z,25.30
2023-02-14T16:21:27.547Z,25.97
2023-02-14T16:24:13.660Z,32.20
2023-02-14T16:26:42.644Z,26.53
2023-02-14T16:29:11.896Z,23.53
2023-02-14T16:31:51.936Z,23.77
2023-02-14T16:34:28.777Z,20.60
2023-02-14T16:36:57.614Z,25.10
2023-02-14T16:39:26.269Z,28.07
2023-02-14T16:41:57.270Z,24.43
2023-02-14T16:44:24.723Z,24.57
2023-02-14T16:46:52.209Z,24.37
2023-02-14T16:49:19.702Z,26.30
2023-02-14T16:51:48.519Z,27.37
2023-02-14T16:54:20.888Z,35.83
2023-02-14T16:56:52.869Z,34.60
2023-02-14T16:59:20.366Z,34.73
2023-02-14T17:01:48.711Z,50.40
2023-02-14T17:04:16.640Z,55.30
2023-02-14T17:06:49.313Z,92.03
2023-02-14T17:09:24.206Z,90.20
2023-02-14T17:11:55.740Z,52.47
2023-02-14T17:14:26.235Z,73.53
2023-02-14T17:16:54.788Z,128.40
2023-02-14T17:19:22.495Z,72.73
2023-02-14T17:21:50.098Z,103.47
2023-02-14T17:24:19.141Z,62.90
2023-02-14T17:26:46.620Z,60.63
2023-02-14T17:29:14.300Z,162.83
2023-02-14T17:31:41.901Z,178.27
2023-02-14T17:34:10.796Z,87.30
2023-02-14T17:36:38.543Z,225.17
2023-02-14T17:39:06.859Z,168.73
2023-02-14T17:41:35.720Z,129.37
2023-02-14T17:44:04.888Z,128.87
2023-02-14T17:46:33.188Z,116.87
2023-02-14T17:49:02.521Z,138.27
2023-02-14T17:51:30.390Z,242.20
2023-02-14T17:53:59.073Z,200.53
2023-02-14T17:56:27.666Z,189.60
2023-02-14T17:58:56.990Z,226.43
2023-02-14T18:01:26.978Z,164.07
2023-02-14T18:03:55.823Z,142.47
2023-02-14T18:06:23.760Z,235.73
2023-02-14T18:08:52.925Z,199.27
2023-02-14T18:11:21.680Z,148.43
2023-02-14T18:13:49.998Z,195.07
2023-02-14T18:16:20.136Z,289.93
2023-02-14T18:18:48.446Z,155.67
2023-02-14T18:21:18.831Z,334.67
2023-02-14T18:23:46.307Z,224.13
2023-02-14T18:26:15.552Z,178.60
2023-02-14T18:28:43.473Z,274.87
2023-02-14T18:31:12.839Z,222.07
2023-02-14T18:33:42.327Z,186.97
2023-02-14T18:36:12.747Z,168.50
2023-02-14T18:38:41.142Z,105.77
2023-02-14T18:41:10.936Z,177.97
2023-02-14T18:43:40.935Z,263.47
2023-02-14T18:46:10.423Z,113.77
2023-02-14T18:48:38.316Z,270.13
2023-02-14T18:51:08.634Z,228.00
2023-02-14T18:53:36.217Z,242.90
2023-02-14T18:56:05.328Z,222.57
2023-02-14T18:58:32.883Z,181.87
2023-02-14T19:01:00.829Z,152.67
2023-02-14T19:03:28.484Z,244.00
2023-02-14T19:06:00.026Z,236.03
2023-02-14T19:08:31.141Z,253.17
2023-02-14T19:10:59.022Z,115.90
2023-02-14T19:13:29.202Z,229.17
2023-02-14T19:15:57.219Z,266.33
2023-02-14T19:18:25.753Z,199.80
2023-02-14T19:20:53.605Z,124.53
2023-02-14T19:23:21.624Z,198.90
2023-02-14T19:25:50.558Z,166.57
2023-02-14T19:28:18.054Z,186.43
2023-02-14T19:30:45.545Z,110.87
2023-02-14T19:33:13.101Z,174.30
2023-02-14T19:35:40.666Z,236.30
2023-02-14T19:38:08.114Z,110.77
2023-02-14T19:40:35.561Z,114.77
2023-02-14T19:43:04.390Z,164.03
2023-02-14T19:45:32.493Z,146.67
2023-02-14T19:48:01.592Z,94.13
2023-02-14T19:50:30.807Z,143.40
2023-02-14T19:52:58.436Z,153.93
2023-02-14T19:55:27.527Z,299.03
2023-02-14T19:57:55.655Z,177.03
2023-02-14T20:00:25.139Z,193.13
2023-02-14T20:02:53.203Z,168.40
2023-02-14T20:05:21.555Z,191.73
2023-02-14T20:07:51.744Z,150.70
2023-02-14T20:10:19.578Z,185.53
2023-02-14T20:12:47.254Z,171.60
2023-02-14T20:15:14.789Z,163.37
2023-02-14T20:17:43.592Z,164.03
2023-02-14T20:20:13.619Z,163.83
2023-02-14T20:22:41.602Z,87.50
2023-02-14T20:25:09.732Z,138.17
2023-02-14T20:27:38.190Z,151.37
2023-02-14T20:30:08.972Z,116.07
2023-02-14T20:32:37.177Z,141.27
2023-02-14T20:35:06.515Z,200.27
2023-02-14T20:37:33.978Z,157.90
2023-02-14T20:40:01.436Z,163.07
2023-02-14T20:42:28.894Z,124.37
2023-02-14T20:44:56.358Z,152.20
2023-02-14T20:47:23.819Z,124.27
2023-02-14T20:49:51.266Z,84.03
2023-02-14T20:52:20.076Z,176.43
2023-02-14T20:54:47.527Z,116.87
2023-02-14T20:57:14.997Z,116.33
2023-02-14T20:59:44.707Z,204.50
2023-02-14T21:02:12.658Z,99.10
2023-02-14T21:04:40.260Z,179.87
2023-02-14T21:07:10.129Z,215.43
2023-02-14T21:09:39.015Z,216.97
2023-02-14T21:12:07.565Z,230.47
2023-02-14T21:14:35.096Z,289.40
2023-02-14T21:17:04.256Z,191.57
2023-02-14T21:19:32.302Z,206.47
2023-02-14T21:21:59.763Z,145.40
2023-02-14T21:24:27.241Z,203.97
2023-02-14T21:26:56.052Z,191.50
2023-02-14T21:29:23.533Z,178.47
2023-02-14T21:31:51.158Z,131.90
2023-02-14T21:34:18.718Z,205.90
2023-02-14T21:36:46.192Z,229.87
2023-02-14T21:39:14.281Z,221.37
2023-02-14T21:41:41.748Z,279.53
2023-02-14T21:44:31.060Z,297.30
2023-02-14T21:46:57.558Z,199.27
2023-02-14T21:49:42.633Z,242.13
2023-02-14T21:52:10.090Z,247.03
2023-02-14T21:54:37.770Z,242.30
2023-02-14T21:57:05.242Z,256.33
2023-02-14T21:59:34.496Z,290.03
2023-02-14T22:02:01.969Z,304.73
2023-02-14T22:04:29.430Z,253.03
2023-02-14T22:06:57.052Z,232.13
2023-02-14T22:09:24.550Z,248.23
2023-02-14T22:11:52.035Z,195.83
2023-02-14T22:14:19.746Z,201.40
2023-02-14T22:16:48.786Z,275.77
2023-02-14T22:19:17.068Z,77.00
2023-02-14T22:21:44.690Z,252.23
2023-02-14T22:24:12.527Z,235.30
2023-02-14T22:26:40.819Z,139.57
2023-02-14T22:29:11.500Z,99.17
2023-02-14T22:31:41.126Z,128.43
2023-02-14T22:34:12.296Z,135.03
2023-02-14T22:36:39.808Z,133.77
2023-02-14T22:39:07.419Z,177.43
2023-02-14T22:41:37.608Z,187.20
2023-02-14T22:44:05.824Z,199.33
2023-02-14T22:46:33.574Z,216.07
2023-02-14T22:49:01.069Z,156.70
2023-02-14T22:51:31.991Z,153.70
2023-02-14T22:54:02.008Z,173.30
2023-02-14T22:56:31.823Z,203.70
2023-02-14T22:59:02.495Z,155.47
2023-02-14T23:01:29.997Z,203.13
2023-02-14T23:03:59.684Z,116.87
2023-02-14T23:06:29.336Z,128.33
2023-02-14T23:08:58.503Z,231.63
2023-02-14T23:11:28.165Z,233.83
2023-02-14T23:14:13.925Z,154.80
2023-02-14T23:17:04.987Z,159.00
2023-02-14T23:19:51.821Z,171.40
2023-02-14T23:22:21.515Z,123.97
2023-02-14T23:24:52.670Z,152.97
2023-02-14T23:27:22.652Z,165.63
2023-02-14T23:29:50.247Z,128.97
2023-02-14T23:32:18.080Z,241.70
2023-02-14T23:34:46.309Z,191.53
2023-02-14T23:37:14.916Z,295.07
2023-02-14T23:39:42.567Z,212.77
2023-02-14T23:42:13.626Z,70.20
2023-02-14T23:44:42.736Z,149.13
2023-02-14T23:47:10.946Z,162.60
2023-02-14T23:49:40.806Z,211.53
2023-02-14T23:52:10.652Z,237.00
2023-02-14T23:54:39.145Z,172.70
2023-02-14T23:57:08.266Z,232.53
2023-02-14T23:59:37.078Z,236.10
